Time;durP1;ratioP1;P1;durP2;ratioP2;P2;SDS_P1;SDS_P2;PMS_P1;PMS_P2;Temp;Humidity;BMP_temperature;BMP_pressure;BME280_temperature;BME280_humidity;BME280_pressure;Samples;Min_cycle;Max_cycle;Signal;HPM_P1;HPM_P2
2024/01/31 00:00:25;;;;;;;4.93;1.92;;;5.70;99.90;;;;;;4952782;28;20507;-59
2024/01/31 00:02:50;;;;;;;4.03;1.35;;;5.60;99.90;;;;;;4950366;28;21184;-60
2024/01/31 00:05:16;;;;;;;5.40;1.75;;;5.60;99.90;;;;;;4985840;28;20053;-59
2024/01/31 00:07:43;;;;;;;5.30;1.92;;;5.60;99.90;;;;;;4957584;28;20043;-60
2024/01/31 00:10:09;;;;;;;3.92;1.17;;;5.60;99.90;;;;;;4952665;28;20544;-59
2024/01/31 00:12:34;;;;;;;6.32;1.02;;;5.60;99.90;;;;;;4948433;28;20039;-59
2024/01/31 00:15:00;;;;;;;4.65;1.63;;;5.60;99.90;;;;;;4954592;28;20053;-60
2024/01/31 00:17:25;;;;;;;8.52;2.03;;;5.50;99.90;;;;;;4982722;28;20027;-59
2024/01/31 00:19:51;;;;;;;5.15;1.90;;;5.50;99.90;;;;;;4950338;28;20085;-60
2024/01/31 00:22:17;;;;;;;5.63;1.52;;;5.50;99.90;;;;;;4952197;28;20660;-60
2024/01/31 00:24:42;;;;;;;8.20;1.90;;;5.50;99.90;;;;;;4945372;28;20035;-57
2024/01/31 00:27:08;;;;;;;1.80;1.50;;;5.50;99.90;;;;;;4940886;28;20621;-60
2024/01/31 00:29:34;;;;;;;7.30;2.47;;;5.40;99.90;;;;;;4971286;28;20487;-61
2024/01/31 00:32:00;;;;;;;9.40;2.45;;;5.40;99.90;;;;;;4959180;28;20380;-58
2024/01/31 00:34:26;;;;;;;7.15;2.40;;;5.40;99.90;;;;;;4947943;28;20023;-57
2024/01/31 00:36:52;;;;;;;6.40;2.42;;;5.40;99.90;;;;;;4945918;28;20038;-59
2024/01/31 00:39:20;;;;;;;8.35;1.73;;;5.40;99.90;;;;;;4936867;28;20137;-60
2024/01/31 00:41:47;;;;;;;3.45;1.30;;;5.30;99.90;;;;;;4943836;28;20069;-59
2024/01/31 00:44:13;;;;;;;7.97;2.17;;;5.30;99.90;;;;;;4982495;28;20071;-60
2024/01/31 00:46:42;;;;;;;7.07;1.60;;;5.30;99.90;;;;;;4945733;28;20528;-58
2024/01/31 00:49:08;;;;;;;7.75;2.00;;;5.30;99.90;;;;;;4941173;28;20034;-58
2024/01/31 00:51:34;;;;;;;9.40;2.70;;;5.30;99.90;;;;;;4938131;28;20510;-59
2024/01/31 00:54:00;;;;;;;8.00;2.38;;;5.30;99.90;;;;;;4938615;28;20134;-58
2024/01/31 00:56:25;;;;;;;9.05;2.35;;;5.30;99.90;;;;;;4975801;28;20529;-58
2024/01/31 00:58:51;;;;;;;10.35;2.25;;;5.30;99.90;;;;;;4937077;28;20045;-60
2024/01/31 01:01:17;;;;;;;5.93;1.45;;;5.30;99.90;;;;;;4942956;28;20064;-59
2024/01/31 01:03:43;;;;;;;4.38;1.63;;;5.30;99.90;;;;;;4947185;28;20109;-59
2024/01/31 01:06:09;;;;;;;2.80;1.10;;;5.20;99.90;;;;;;4934176;28;20509;-58
2024/01/31 01:08:34;;;;;;;3.17;1.00;;;5.20;99.90;;;;;;4944989;28;20034;-61
2024/01/31 01:11:00;;;;;;;6.40;1.27;;;5.20;99.90;;;;;;4951801;28;20031;-59
2024/01/31 01:13:25;;;;;;;2.72;0.65;;;5.20;99.90;;;;;;4937789;28;20061;-59
2024/01/31 01:15:51;;;;;;;6.15;0.93;;;5.20;99.90;;;;;;4941523;28;20052;-58
2024/01/31 01:18:16;;;;;;;4.72;0.90;;;5.10;99.90;;;;;;4921916;28;20113;-58
2024/01/31 01:20:42;;;;;;;2.22;0.70;;;5.10;99.90;;;;;;4937455;28;20435;-60
2024/01/31 01:23:07;;;;;;;6.57;1.10;;;5.10;99.90;;;;;;4977406;28;20034;-59
2024/01/31 01:25:33;;;;;;;7.22;1.38;;;5.10;99.90;;;;;;4938336;28;20061;-60
2024/01/31 01:27:59;;;;;;;5.38;0.85;;;5.10;99.90;;;;;;4924481;28;20079;-58
2024/01/31 01:30:24;;;;;;;1.70;0.63;;;5.10;99.90;;;;;;4928607;28;20034;-58
2024/01/31 01:32:50;;;;;;;2.10;0.35;;;5.00;99.90;;;;;;4926353;28;21242;-59
2024/01/31 01:35:16;;;;;;;3.95;1.15;;;5.00;99.90;;;;;;4979093;28;20842;-57
2024/01/31 01:37:41;;;;;;;2.58;0.90;;;5.00;99.90;;;;;;4932346;28;20026;-59
2024/01/31 01:40:08;;;;;;;3.45;0.93;;;5.00;99.90;;;;;;4917208;28;20019;-59
2024/01/31 01:42:40;;;;;;;4.30;1.20;;;4.90;99.90;;;;;;4923273;28;20034;-58
2024/01/31 01:45:06;;;;;;;4.95;1.10;;;5.00;99.90;;;;;;4911499;28;20466;-59
2024/01/31 01:47:32;;;;;;;3.15;1.25;;;5.00;99.90;;;;;;4959337;28;20411;-61
2024/01/31 01:49:58;;;;;;;3.30;1.00;;;4.90;99.90;;;;;;4953043;28;20030;-59
2024/01/31 01:52:25;;;;;;;4.00;1.00;;;4.90;99.90;;;;;;4932603;28;20549;-59
2024/01/31 01:54:52;;;;;;;2.33;0.85;;;4.90;99.90;;;;;;4930737;28;20034;-59
2024/01/31 01:57:17;;;;;;;3.42;0.98;;;4.90;99.90;;;;;;4911793;28;20035;-60
2024/01/31 01:59:43;;;;;;;2.10;0.85;;;4.90;99.90;;;;;;4934226;28;20033;-60
2024/01/31 02:02:10;;;;;;;2.45;0.80;;;4.90;99.90;;;;;;4976696;28;20030;-59
2024/01/31 02:04:35;;;;;;;0.63;0.43;;;4.80;99.90;;;;;;4932090;28;20247;-58
2024/01/31 02:07:01;;;;;;;1.83;0.52;;;4.90;99.90;;;;;;4928741;28;20034;-58
2024/01/31 02:09:28;;;;;;;2.60;0.50;;;4.80;99.90;;;;;;4916966;28;20026;-59
2024/01/31 02:11:53;;;;;;;2.17;0.60;;;4.80;99.90;;;;;;4928180;28;21254;-57
2024/01/31 02:14:19;;;;;;;3.17;0.45;;;4.80;99.90;;;;;;4950869;28;20366;-58
2024/01/31 02:16:44;;;;;;;2.42;0.55;;;4.70;99.90;;;;;;4927393;28;20038;-57
2024/01/31 02:19:10;;;;;;;2.72;0.50;;;4.70;99.90;;;;;;4929208;28;20505;-57
2024/01/31 02:21:41;;;;;;;3.17;0.60;;;4.70;99.90;;;;;;4910823;28;20128;-61
2024/01/31 02:24:06;;;;;;;2.22;0.73;;;4.60;99.90;;;;;;4917905;28;20474;-60
2024/01/31 02:26:32;;;;;;;0.70;0.60;;;4.60;99.90;;;;;;4957634;28;20066;-60
2024/01/31 02:28:57;;;;;;;2.42;0.45;;;4.60;99.90;;;;;;4946506;28;20037;-58
2024/01/31 02:31:23;;;;;;;4.18;0.77;;;4.60;99.90;;;;;;4925419;28;20088;-58
2024/01/31 02:33:48;;;;;;;2.35;0.80;;;4.50;99.90;;;;;;4925449;28;20262;-58
2024/01/31 02:36:14;;;;;;;1.88;0.80;;;4.50;99.90;;;;;;4917369;28;20383;-59
2024/01/31 02:38:40;;;;;;;0.65;0.43;;;4.50;99.90;;;;;;4923476;28;20061;-60
2024/01/31 02:41:07;;;;;;;3.65;0.60;;;4.50;99.90;;;;;;4960244;28;20041;-59
2024/01/31 02:43:32;;;;;;;3.33;0.52;;;4.50;99.90;;;;;;4922150;28;20034;-59
2024/01/31 02:45:58;;;;;;;1.77;0.35;;;4.50;99.90;;;;;;4907701;28;20030;-58
2024/01/31 02:48:23;;;;;;;2.42;0.73;;;4.50;99.90;;;;;;4923982;28;20506;-58
2024/01/31 02:50:49;;;;;;;1.55;0.57;;;4.50;99.90;;;;;;4905653;28;22486;-60
2024/01/31 02:53:14;;;;;;;4.75;0.70;;;4.50;99.90;;;;;;4979441;28;20636;-59
2024/01/31 02:55:40;;;;;;;1.75;0.52;;;4.50;99.90;;;;;;4924239;28;20042;-59
2024/01/31 02:58:06;;;;;;;1.58;0.40;;;4.50;99.90;;;;;;4915135;28;20046;-60
2024/01/31 03:00:31;;;;;;;4.50;0.90;;;4.50;99.90;;;;;;4918511;28;20049;-58
2024/01/31 03:02:57;;;;;;;3.95;0.80;;;4.50;99.90;;;;;;4915689;28;21655;-59
2024/01/31 03:05:22;;;;;;;2.47;0.52;;;4.40;99.90;;;;;;4976331;28;20034;-60
2024/01/31 03:07:48;;;;;;;7.40;0.82;;;4.40;99.90;;;;;;4921965;28;20065;-59
2024/01/31 03:10:13;;;;;;;3.05;0.90;;;4.40;99.90;;;;;;4905026;28;20034;-60
2024/01/31 03:12:39;;;;;;;3.05;1.10;;;4.40;99.90;;;;;;4897548;28;20110;-58
2024/01/31 03:15:05;;;;;;;1.00;0.52;;;4.40;99.90;;;;;;4904613;28;21070;-59
2024/01/31 03:17:35;;;;;;;1.83;0.93;;;4.40;99.90;;;;;;4950147;28;20186;-61
2024/01/31 03:20:03;;;;;;;2.80;0.98;;;4.30;99.90;;;;;;4950030;28;20022;-60
2024/01/31 03:22:29;;;;;;;4.13;1.15;;;4.30;99.90;;;;;;4918233;28;20022;-60
2024/01/31 03:24:55;;;;;;;1.77;0.60;;;4.30;99.90;;;;;;4893476;28;20542;-60
2024/01/31 03:27:20;;;;;;;1.33;0.73;;;4.30;99.90;;;;;;4910270;28;20030;-59
2024/01/31 03:29:46;;;;;;;3.10;1.02;;;4.30;99.90;;;;;;4903370;28;20642;-60
2024/01/31 03:32:11;;;;;;;4.43;0.90;;;4.30;99.90;;;;;;4965413;28;21529;-60
2024/01/31 03:34:37;;;;;;;3.08;0.90;;;4.30;99.90;;;;;;4941858;28;20058;-59
2024/01/31 03:37:05;;;;;;;3.60;0.95;;;4.30;99.90;;;;;;4908295;28;20039;-60
2024/01/31 03:39:31;;;;;;;6.88;1.63;;;4.30;99.90;;;;;;4915380;28;20026;-58
2024/01/31 03:41:57;;;;;;;6.53;1.30;;;4.30;99.90;;;;;;4894959;28;20829;-61
2024/01/31 03:44:22;;;;;;;4.57;1.40;;;4.30;99.90;;;;;;4968495;28;20038;-58
2024/01/31 03:46:48;;;;;;;2.05;0.93;;;4.30;99.90;;;;;;4917744;28;20061;-61
2024/01/31 03:49:13;;;;;;;2.72;1.02;;;4.30;99.90;;;;;;4905910;28;20027;-59
2024/01/31 03:51:39;;;;;;;2.20;0.75;;;4.30;99.90;;;;;;4898558;28;20035;-59
2024/01/31 03:54:05;;;;;;;2.90;1.15;;;4.20;99.90;;;;;;4894127;28;20034;-59
2024/01/31 03:56:30;;;;;;;3.50;1.17;;;4.20;99.90;;;;;;4972602;28;20110;-61
2024/01/31 03:58:56;;;;;;;10.68;2.35;;;4.30;99.90;;;;;;4875969;28;20030;-61
2024/01/31 04:01:21;;;;;;;7.68;1.52;;;4.30;99.90;;;;;;4911046;28;20462;-60
2024/01/31 04:03:47;;;;;;;4.22;1.17;;;4.30;99.90;;;;;;4940198;28;20029;-60
2024/01/31 04:06:13;;;;;;;4.22;1.00;;;4.30;99.90;;;;;;4963230;28;20081;-60
2024/01/31 04:08:39;;;;;;;2.67;1.00;;;4.30;99.90;;;;;;4944194;28;20039;-61
2024/01/31 04:11:05;;;;;;;4.82;1.30;;;4.30;99.90;;;;;;4961357;28;20058;-60
2024/01/31 04:13:31;;;;;;;4.18;1.52;;;4.30;99.90;;;;;;4952403;28;20037;-60
2024/01/31 04:15:57;;;;;;;4.68;0.98;;;4.30;99.90;;;;;;4939367;28;20675;-60
2024/01/31 04:18:23;;;;;;;4.03;1.52;;;4.20;99.90;;;;;;4930281;28;20096;-59
2024/01/31 04:20:49;;;;;;;4.78;0.93;;;4.20;99.90;;;;;;4925544;28;20285;-60
2024/01/31 04:23:15;;;;;;;7.88;1.60;;;4.30;99.90;;;;;;4936378;28;20038;-60
2024/01/31 04:25:41;;;;;;;4.97;1.23;;;4.30;99.90;;;;;;4937667;28;20030;-60
2024/01/31 04:28:06;;;;;;;4.07;0.98;;;4.20;99.90;;;;;;4931402;28;20169;-60
2024/01/31 04:30:32;;;;;;;5.75;1.52;;;4.20;99.90;;;;;;4893462;28;20080;-61
2024/01/31 04:33:01;;;;;;;6.95;1.30;;;4.20;99.90;;;;;;4928580;28;20383;-60
2024/01/31 04:35:27;;;;;;;7.15;1.13;;;4.20;99.90;;;;;;4965208;28;20340;-60
2024/01/31 04:37:53;;;;;;;8.00;1.45;;;4.20;99.90;;;;;;4907418;28;20562;-61
2024/01/31 04:40:19;;;;;;;5.78;1.10;;;4.20;99.90;;;;;;4946530;28;20031;-61
2024/01/31 04:42:47;;;;;;;4.43;1.58;;;4.20;99.90;;;;;;4932508;28;20154;-60
2024/01/31 04:45:16;;;;;;;5.05;1.48;;;4.20;99.90;;;;;;4887959;28;20082;-60
2024/01/31 04:47:41;;;;;;;9.60;1.85;;;4.20;99.90;;;;;;4924772;28;20100;-61
2024/01/31 04:50:07;;;;;;;1.67;0.90;;;4.10;99.90;;;;;;4956059;28;20042;-60
2024/01/31 04:52:33;;;;;;;7.13;1.58;;;4.20;99.90;;;;;;4912680;28;20061;-56
2024/01/31 04:54:59;;;;;;;2.17;0.90;;;4.10;99.90;;;;;;4905318;28;20031;-60
2024/01/31 04:57:24;;;;;;;4.70;1.27;;;4.10;99.90;;;;;;4926097;28;20113;-60
2024/01/31 04:59:50;;;;;;;11.48;1.38;;;4.10;99.90;;;;;;4911694;28;20034;-60
2024/01/31 05:02:15;;;;;;;2.70;0.68;;;4.10;99.90;;;;;;4932867;28;21699;-60
2024/01/31 05:04:41;;;;;;;3.75;1.15;;;4.20;99.90;;;;;;4903912;28;20095;-60
2024/01/31 05:07:06;;;;;;;4.57;0.95;;;4.20;99.90;;;;;;4936900;28;20170;-60
2024/01/31 05:09:32;;;;;;;4.90;1.90;;;4.10;99.90;;;;;;4897738;28;20039;-61
2024/01/31 05:11:58;;;;;;;5.57;1.20;;;4.20;99.90;;;;;;4937453;28;20097;-60
2024/01/31 05:14:23;;;;;;;5.40;1.15;;;4.10;99.90;;;;;;4948351;28;20030;-60
2024/01/31 05:16:49;;;;;;;2.72;0.73;;;4.10;99.90;;;;;;4935053;28;20027;-59
2024/01/31 05:19:15;;;;;;;3.78;1.23;;;4.10;99.90;;;;;;4925606;28;20068;-60
2024/01/31 05:21:50;;;;;;;4.78;1.05;;;4.10;99.90;;;;;;4880977;28;20122;-58
2024/01/31 05:24:16;;;;;;;3.33;0.90;;;4.10;99.90;;;;;;4918993;28;20030;-59
2024/01/31 05:26:43;;;;;;;2.35;0.98;;;4.10;99.90;;;;;;4899606;28;20050;-59
2024/01/31 05:29:09;;;;;;;3.45;0.85;;;4.10;99.90;;;;;;4953408;28;20054;-58
2024/01/31 05:31:35;;;;;;;9.23;1.77;;;4.10;99.90;;;;;;4931514;28;20053;-59
2024/01/31 05:34:01;;;;;;;3.75;1.08;;;4.10;99.90;;;;;;4915688;28;20034;-61
2024/01/31 05:36:27;;;;;;;2.20;0.80;;;4.10;99.90;;;;;;4952624;28;20418;-59
2024/01/31 05:38:52;;;;;;;6.28;1.25;;;4.10;99.90;;;;;;4929099;28;20556;-62
2024/01/31 05:41:18;;;;;;;3.50;1.42;;;4.10;99.90;;;;;;4949745;28;20030;-60
2024/01/31 05:43:44;;;;;;;3.30;1.00;;;4.10;99.90;;;;;;4911818;28;20033;-59
2024/01/31 05:46:10;;;;;;;5.63;2.13;;;4.10;99.90;;;;;;4934388;28;20096;-59
2024/01/31 05:48:36;;;;;;;3.13;1.08;;;4.10;99.90;;;;;;4923833;28;20023;-59
2024/01/31 05:51:02;;;;;;;4.90;1.20;;;4.10;99.90;;;;;;4970239;28;20402;-61
2024/01/31 05:53:27;;;;;;;2.22;1.00;;;4.10;99.90;;;;;;4950015;28;20390;-60
2024/01/31 05:55:53;;;;;;;3.42;1.13;;;4.10;99.90;;;;;;4947808;28;20077;-59
2024/01/31 05:58:18;;;;;;;6.20;1.30;;;4.10;99.90;;;;;;4948747;28;20573;-61
2024/01/31 06:00:46;;;;;;;9.68;1.23;;;4.10;99.90;;;;;;4946631;28;20491;-61
2024/01/31 06:03:12;;;;;;;3.10;0.85;;;4.10;99.90;;;;;;4978387;28;20053;-60
2024/01/31 06:05:37;;;;;;;10.05;0.95;;;4.00;99.90;;;;;;4948777;28;20082;-58
2024/01/31 06:08:03;;;;;;;2.47;1.10;;;4.10;99.90;;;;;;4946663;28;20041;-61
2024/01/31 06:10:29;;;;;;;6.03;1.35;;;4.00;99.90;;;;;;4949101;28;20030;-60
2024/01/31 06:12:54;;;;;;;5.10;1.48;;;4.10;99.90;;;;;;4947411;28;21563;-60
2024/01/31 06:15:20;;;;;;;7.40;1.45;;;4.10;99.90;;;;;;4978145;28;20055;-60
2024/01/31 06:17:46;;;;;;;4.07;1.17;;;4.00;99.90;;;;;;4947628;28;20240;-59
2024/01/31 06:20:12;;;;;;;1.77;1.10;;;4.10;99.90;;;;;;4948298;28;20843;-60
2024/01/31 06:22:38;;;;;;;3.45;0.82;;;4.10;99.90;;;;;;4937982;28;20605;-60
2024/01/31 06:25:03;;;;;;;3.17;1.35;;;4.00;99.90;;;;;;4939802;28;20467;-60
2024/01/31 06:27:29;;;;;;;8.55;0.98;;;4.00;99.90;;;;;;4977523;28;20746;-62
2024/01/31 06:29:55;;;;;;;6.70;0.95;;;4.00;99.90;;;;;;4952633;28;20034;-60
2024/01/31 06:32:30;;;;;;;2.40;0.57;;;4.00;99.90;;;;;;4940264;28;20380;-60
2024/01/31 06:34:56;;;;;;;2.28;0.60;;;4.00;99.90;;;;;;4934539;28;20037;-62
2024/01/31 06:37:21;;;;;;;7.43;3.38;;;4.10;99.90;;;;;;4944237;28;20061;-60
2024/01/31 06:39:47;;;;;;;12.70;2.05;;;4.00;99.90;;;;;;4938223;28;20081;-60
2024/01/31 06:42:13;;;;;;;4.25;1.38;;;4.00;99.90;;;;;;4983996;28;20132;-60
2024/01/31 06:44:38;;;;;;;8.60;1.08;;;4.00;99.90;;;;;;4945589;28;20501;-59
2024/01/31 06:47:05;;;;;;;3.63;1.38;;;4.10;99.90;;;;;;4936220;28;20038;-58
2024/01/31 06:49:31;;;;;;;5.00;1.10;;;4.10;99.90;;;;;;4941372;28;20026;-60
2024/01/31 06:51:56;;;;;;;4.97;1.08;;;4.10;99.90;;;;;;4943903;28;21899;-60
2024/01/31 06:54:22;;;;;;;6.90;1.10;;;4.10;99.90;;;;;;4978874;28;20025;-61
2024/01/31 06:56:48;;;;;;;9.77;1.48;;;4.10;99.90;;;;;;4945776;28;20038;-59
2024/01/31 06:59:13;;;;;;;6.70;1.50;;;4.10;99.90;;;;;;4940583;28;20030;-61
2024/01/31 07:01:39;;;;;;;1.95;0.77;;;4.10;99.90;;;;;;4936199;28;20087;-61
2024/01/31 07:04:04;;;;;;;4.38;0.88;;;4.10;99.90;;;;;;4934913;28;20041;-61
2024/01/31 07:06:30;;;;;;;2.60;1.08;;;4.10;99.90;;;;;;4972714;28;20030;-61
2024/01/31 07:08:55;;;;;;;3.30;1.25;;;4.10;99.90;;;;;;4942430;28;20614;-58
2024/01/31 07:11:21;;;;;;;1.75;0.65;;;4.10;99.90;;;;;;4937884;28;20042;-60
2024/01/31 07:13:46;;;;;;;6.70;1.40;;;4.10;99.90;;;;;;4938111;28;20027;-59
2024/01/31 07:16:12;;;;;;;9.13;1.45;;;4.10;99.90;;;;;;4934228;28;20027;-59
2024/01/31 07:18:42;;;;;;;4.95;1.05;;;4.10;99.90;;;;;;4935182;28;20030;-61
2024/01/31 07:21:22;;;;;;;5.85;1.23;;;4.10;99.90;;;;;;4980223;28;20026;-60
2024/01/31 07:23:47;;;;;;;3.75;0.95;;;4.10;99.90;;;;;;4935911;28;20030;-60
2024/01/31 07:26:23;;;;;;;2.70;0.82;;;4.20;99.90;;;;;;4931904;28;20350;-60
2024/01/31 07:28:50;;;;;;;;;;;4.20;99.90;;;;;;4928068;28;20447;-61
2024/01/31 07:31:15;;;;;;;2.30;0.82;;;4.20;99.90;;;;;;4934705;28;19921;-61
2024/01/31 07:33:41;;;;;;;5.47;1.23;;;4.20;99.90;;;;;;4931094;28;20414;-61
2024/01/31 07:36:07;;;;;;;5.25;1.27;;;4.20;99.90;;;;;;4961340;28;20027;-60
2024/01/31 07:38:32;;;;;;;5.13;1.70;;;4.20;99.90;;;;;;4939365;28;20403;-60
2024/01/31 07:40:58;;;;;;;5.32;1.13;;;4.20;99.90;;;;;;4926871;28;20225;-59
2024/01/31 07:43:24;;;;;;;5.53;1.45;;;4.20;99.90;;;;;;4912887;28;20666;-61
2024/01/31 07:45:49;;;;;;;7.57;1.35;;;4.20;99.90;;;;;;4923159;28;22284;-61
2024/01/31 07:48:15;;;;;;;5.65;1.30;;;4.20;99.90;;;;;;4970020;28;20030;-60
2024/01/31 07:50:40;;;;;;;8.10;1.33;;;4.30;99.90;;;;;;4935574;28;20036;-60
2024/01/31 07:53:06;;;;;;;2.13;0.68;;;4.30;99.90;;;;;;4927030;28;20121;-60
2024/01/31 07:55:31;;;;;;;5.72;0.88;;;4.30;99.90;;;;;;4927723;28;20054;-60
2024/01/31 07:57:57;;;;;;;5.82;1.00;;;4.30;99.90;;;;;;4900424;28;20026;-61
2024/01/31 08:00:22;;;;;;;7.20;0.73;;;4.30;99.90;;;;;;4976687;28;20019;-60
2024/01/31 08:02:48;;;;;;;3.38;0.80;;;4.30;99.90;;;;;;4932559;28;20690;-59
2024/01/31 08:05:14;;;;;;;4.88;1.33;;;4.40;99.90;;;;;;4931064;28;20467;-60
2024/01/31 08:07:43;;;;;;;6.07;1.02;;;4.40;99.90;;;;;;4901618;28;20026;-58
2024/01/31 08:10:11;;;;;;;5.93;1.30;;;4.40;99.90;;;;;;4902728;28;20490;-60
2024/01/31 08:12:36;;;;;;;4.57;0.93;;;4.50;99.90;;;;;;4947031;28;20045;-63
2024/01/31 08:15:02;;;;;;;4.78;1.23;;;4.50;99.90;;;;;;4968871;28;20439;-60
2024/01/31 08:17:28;;;;;;;4.75;1.65;;;4.50;99.90;;;;;;4931150;28;20027;-57
2024/01/31 08:19:53;;;;;;;5.28;1.38;;;4.50;99.90;;;;;;4916898;28;20038;-59
2024/01/31 08:22:19;;;;;;;6.85;1.23;;;4.50;99.90;;;;;;4927236;28;20120;-59
2024/01/31 08:24:44;;;;;;;7.38;1.20;;;4.50;99.90;;;;;;4923094;28;20026;-58
2024/01/31 08:27:10;;;;;;;2.10;0.77;;;4.60;99.90;;;;;;4980653;28;21474;-59
2024/01/31 08:29:35;;;;;;;4.05;0.98;;;4.60;99.90;;;;;;4931333;28;20030;-60
2024/01/31 08:32:01;;;;;;;6.07;1.08;;;4.60;99.90;;;;;;4922644;28;20088;-59
2024/01/31 08:34:26;;;;;;;2.75;1.00;;;4.60;99.90;;;;;;4890256;28;20026;-60
2024/01/31 08:36:53;;;;;;;4.03;1.23;;;4.60;99.90;;;;;;4901228;28;21617;-59
2024/01/31 08:39:18;;;;;;;7.22;1.65;;;4.70;99.90;;;;;;4977159;28;20049;-58
2024/01/31 08:41:44;;;;;;;4.50;1.60;;;4.70;99.90;;;;;;4926788;28;20499;-59
2024/01/31 08:44:12;;;;;;;7.20;1.63;;;4.70;99.90;;;;;;4924970;28;20030;-60
2024/01/31 08:46:38;;;;;;;9.50;2.00;;;4.70;99.90;;;;;;4887659;28;20146;-60
2024/01/31 08:49:03;;;;;;;4.57;1.33;;;4.80;99.90;;;;;;4917710;28;20050;-58
2024/01/31 08:51:30;;;;;;;5.63;1.77;;;4.80;99.90;;;;;;4970829;28;20037;-61
2024/01/31 08:53:56;;;;;;;5.25;1.25;;;4.80;99.90;;;;;;4930088;28;20066;-60
2024/01/31 08:56:21;;;;;;;5.43;1.17;;;4.80;99.90;;;;;;4923443;28;20129;-60
2024/01/31 08:58:47;;;;;;;4.95;1.10;;;4.90;99.90;;;;;;4878270;28;20074;-59
2024/01/31 09:01:12;;;;;;;5.25;1.30;;;4.90;99.90;;;;;;4912867;28;20030;-59
2024/01/31 09:03:38;;;;;;;9.48;1.00;;;4.90;99.90;;;;;;4926939;28;20030;-61
2024/01/31 09:06:04;;;;;;;2.38;0.88;;;4.90;99.90;;;;;;4957608;28;20814;-58
2024/01/31 09:08:29;;;;;;;6.18;1.65;;;4.90;99.90;;;;;;4922088;28;20026;-59
2024/01/31 09:10:55;;;;;;;7.10;1.65;;;5.00;99.90;;;;;;4921337;28;20041;-60
2024/01/31 09:13:20;;;;;;;5.45;1.58;;;5.00;99.90;;;;;;4899364;28;20522;-59
2024/01/31 09:15:46;;;;;;;6.97;1.95;;;5.00;99.90;;;;;;4920392;28;20034;-58
2024/01/31 09:18:12;;;;;;;3.85;1.65;;;5.00;99.90;;;;;;4973137;28;21635;-59
2024/01/31 09:20:38;;;;;;;2.70;0.90;;;4.90;99.90;;;;;;4920976;28;20022;-58
2024/01/31 09:23:04;;;;;;;3.28;1.05;;;4.90;99.90;;;;;;4914945;28;20042;-60
2024/01/31 09:25:29;;;;;;;6.32;1.70;;;4.90;99.90;;;;;;4903642;28;20023;-58
2024/01/31 09:27:55;;;;;;;3.83;1.30;;;5.00;99.90;;;;;;4909381;28;21233;-59
2024/01/31 09:30:20;;;;;;;5.40;1.33;;;5.00;99.90;;;;;;4981755;28;20415;-63
2024/01/31 09:32:46;;;;;;;4.75;1.83;;;5.10;99.90;;;;;;4918921;28;20755;-59
2024/01/31 09:35:12;;;;;;;6.22;1.40;;;5.20;99.90;;;;;;4888190;28;20045;-59
2024/01/31 09:37:37;;;;;;;8.68;1.85;;;5.30;99.90;;;;;;4897124;28;20022;-60
2024/01/31 09:40:03;;;;;;;4.85;1.00;;;5.40;99.90;;;;;;4893945;28;21470;-60
2024/01/31 09:42:30;;;;;;;9.60;1.48;;;5.50;99.90;;;;;;4982263;28;20384;-62
2024/01/31 09:44:58;;;;;;;4.63;1.42;;;5.50;99.90;;;;;;4920295;28;20030;-59
2024/01/31 09:47:30;;;;;;;4.20;1.17;;;5.60;99.90;;;;;;4919395;28;20502;-60
2024/01/31 09:49:56;;;;;;;9.00;1.83;;;5.60;99.90;;;;;;4913173;28;20042;-60
2024/01/31 09:52:27;;;;;;;7.95;1.85;;;5.60;99.90;;;;;;4897968;28;20034;-61
2024/01/31 09:54:56;;;;;;;4.65;1.50;;;5.60;99.90;;;;;;4910187;28;21079;-60
2024/01/31 09:57:22;;;;;;;5.10;1.13;;;5.60;99.90;;;;;;4960426;28;20090;-58
2024/01/31 09:59:49;;;;;;;8.38;1.00;;;5.60;99.90;;;;;;4915162;28;20038;-60
2024/01/31 10:02:16;;;;;;;3.63;1.10;;;5.60;99.90;;;;;;4914641;28;20189;-59
2024/01/31 10:04:46;;;;;;;3.95;1.35;;;5.60;99.90;;;;;;4898773;28;20080;-57
2024/01/31 10:07:12;;;;;;;5.32;0.75;;;5.60;99.90;;;;;;4909129;28;20220;-59
2024/01/31 10:09:37;;;;;;;5.30;1.02;;;5.60;99.90;;;;;;4917255;28;20125;-60
2024/01/31 10:12:04;;;;;;;3.65;1.25;;;5.60;99.90;;;;;;4934971;28;20464;-60
2024/01/31 10:14:29;;;;;;;4.18;1.00;;;5.60;99.90;;;;;;4926774;28;20069;-55
2024/01/31 10:16:55;;;;;;;4.57;1.33;;;5.60;99.90;;;;;;4930381;28;20517;-58
2024/01/31 10:19:21;;;;;;;7.28;1.55;;;5.50;99.90;;;;;;4898349;28;20165;-57
2024/01/31 10:21:46;;;;;;;4.80;1.00;;;5.60;99.90;;;;;;4915827;28;20034;-59
2024/01/31 10:24:15;;;;;;;7.07;1.30;;;5.60;99.90;;;;;;4949278;28;21477;-60
2024/01/31 10:26:41;;;;;;;3.08;0.80;;;5.60;99.90;;;;;;4918194;28;20042;-59
2024/01/31 10:29:07;;;;;;;5.28;1.77;;;5.70;99.90;;;;;;4876362;28;20030;-60
2024/01/31 10:31:34;;;;;;;2.47;0.70;;;5.60;99.90;;;;;;4890389;28;20038;-60
2024/01/31 10:34:00;;;;;;;6.95;1.10;;;5.60;99.90;;;;;;4913741;28;20034;-57
2024/01/31 10:36:27;;;;;;;4.95;1.05;;;5.70;99.90;;;;;;4968891;28;20508;-57
2024/01/31 10:38:53;;;;;;;4.50;1.27;;;5.60;99.90;;;;;;4895595;28;20158;-60
2024/01/31 10:41:21;;;;;;;4.40;0.98;;;5.60;99.90;;;;;;4912520;28;20030;-59
2024/01/31 10:43:50;;;;;;;6.50;1.13;;;5.70;99.90;;;;;;4908977;28;20260;-59
2024/01/31 10:46:16;;;;;;;5.03;1.08;;;5.70;99.90;;;;;;4889038;28;20042;-59
2024/01/31 10:48:42;;;;;;;3.15;1.17;;;5.80;99.90;;;;;;4920592;28;20030;-60
2024/01/31 10:51:09;;;;;;;6.43;1.15;;;5.80;99.90;;;;;;4928972;28;20053;-59
2024/01/31 10:53:35;;;;;;;5.88;1.25;;;5.70;99.90;;;;;;4907453;28;20026;-59
2024/01/31 10:56:03;;;;;;;4.15;1.10;;;5.70;99.90;;;;;;4909372;28;20030;-58
2024/01/31 10:58:29;;;;;;;2.92;1.40;;;5.70;99.90;;;;;;4962010;28;20054;-58
2024/01/31 11:00:55;;;;;;;5.88;1.08;;;5.80;99.90;;;;;;4928019;28;21345;-59
2024/01/31 11:03:23;;;;;;;3.50;1.20;;;5.80;99.90;;;;;;4959334;28;20475;-58
2024/01/31 11:05:51;;;;;;;3.00;0.90;;;5.80;99.90;;;;;;4907449;28;20033;-59
2024/01/31 11:08:21;;;;;;;2.03;0.73;;;5.80;99.90;;;;;;4914004;28;20518;-60
2024/01/31 11:10:50;;;;;;;5.85;1.13;;;5.80;99.90;;;;;;4905969;28;20030;-59
2024/01/31 11:13:16;;;;;;;4.80;0.90;;;5.70;99.90;;;;;;4923363;28;20054;-59
2024/01/31 11:15:44;;;;;;;3.72;0.73;;;5.70;99.90;;;;;;4934374;28;20022;-60
2024/01/31 11:18:11;;;;;;;1.77;0.47;;;5.70;99.90;;;;;;4945438;28;20046;-57
2024/01/31 11:20:46;;;;;;;3.88;0.95;;;5.70;99.90;;;;;;4905875;28;20041;-58
2024/01/31 11:23:16;;;;;;;3.55;1.17;;;5.70;99.90;;;;;;4906125;28;20033;-57
2024/01/31 11:25:43;;;;;;;1.48;0.73;;;5.70;99.90;;;;;;4901080;28;20088;-59
2024/01/31 11:28:10;;;;;;;2.90;1.08;;;5.70;99.90;;;;;;4921322;28;20129;-59
2024/01/31 11:30:36;;;;;;;2.92;0.80;;;5.60;99.90;;;;;;4950814;28;20073;-60
2024/01/31 11:33:05;;;;;;;2.53;0.70;;;5.60;99.90;;;;;;4898786;28;20038;-57
2024/01/31 11:35:31;;;;;;;1.95;0.60;;;5.60;99.90;;;;;;4901934;28;20514;-58
2024/01/31 11:37:58;;;;;;;4.70;1.00;;;5.60;99.90;;;;;;4888075;28;20418;-58
2024/01/31 11:40:23;;;;;;;4.18;0.77;;;5.60;99.90;;;;;;4910489;28;20026;-58
2024/01/31 11:42:50;;;;;;;2.33;0.57;;;5.60;99.90;;;;;;4856988;28;20073;-60
2024/01/31 11:45:16;;;;;;;5.03;0.57;;;5.60;99.90;;;;;;4953244;28;20044;-57
2024/01/31 11:47:42;;;;;;;2.95;0.90;;;5.60;99.90;;;;;;4897858;28;20031;-54
2024/01/31 11:50:08;;;;;;;3.15;0.65;;;5.60;99.90;;;;;;4852391;28;20589;-59
2024/01/31 11:52:34;;;;;;;2.83;0.60;;;5.60;99.90;;;;;;4885794;28;20035;-61
2024/01/31 11:54:59;;;;;;;6.30;0.82;;;5.60;99.90;;;;;;4914550;28;22108;-59
2024/01/31 11:57:28;;;;;;;4.78;2.25;;;5.50;99.90;;;;;;4954358;28;20626;-60
2024/01/31 11:59:54;;;;;;;11.93;3.33;;;5.50;99.90;;;;;;4887600;28;20146;-59
2024/01/31 12:02:20;;;;;;;2.75;1.65;;;5.50;99.90;;;;;;4892126;28;20038;-58
2024/01/31 12:04:56;;;;;;;3.38;1.42;;;5.40;99.90;;;;;;4889149;28;20375;-59
2024/01/31 12:07:22;;;;;;;;;;;5.30;99.90;;;;;;4865842;28;20048;-57
2024/01/31 12:09:47;;;;;;;2.53;1.23;;;5.30;99.90;;;;;;4941972;28;19913;-59
2024/01/31 12:12:13;;;;;;;3.47;0.50;;;5.30;99.90;;;;;;4936595;28;21577;-59
2024/01/31 12:14:42;;;;;;;2.88;0.70;;;5.30;99.90;;;;;;4955589;28;20605;-58
2024/01/31 12:17:23;;;;;;;2.17;0.73;;;5.20;99.90;;;;;;4945072;28;20023;-57
2024/01/31 12:20:01;;;;;;;2.88;1.20;;;5.20;99.90;;;;;;4940745;28;22010;-59
2024/01/31 12:22:26;;;;;;;2.33;1.13;;;5.30;99.90;;;;;;4985109;28;20090;-58
2024/01/31 12:24:52;;;;;;;3.88;0.82;;;5.30;99.90;;;;;;4951440;28;20511;-58
2024/01/31 12:27:18;;;;;;;3.03;1.00;;;5.30;99.90;;;;;;4957056;28;20080;-58
2024/01/31 12:29:46;;;;;;;3.22;0.80;;;5.20;99.90;;;;;;4954530;28;20026;-59
2024/01/31 12:32:12;;;;;;;2.00;0.80;;;5.20;99.90;;;;;;4954784;28;20462;-57
2024/01/31 12:34:37;;;;;;;2.50;0.90;;;5.20;99.90;;;;;;4951775;28;20058;-59
2024/01/31 12:37:03;;;;;;;5.30;0.95;;;5.20;99.90;;;;;;4983740;28;20033;-58
2024/01/31 12:39:29;;;;;;;3.63;1.08;;;5.20;99.90;;;;;;4947555;28;20027;-58
2024/01/31 12:41:54;;;;;;;1.25;0.63;;;5.10;99.90;;;;;;4948390;28;20034;-59
2024/01/31 12:44:20;;;;;;;3.63;1.13;;;5.10;99.90;;;;;;4949556;28;20025;-59
2024/01/31 12:46:46;;;;;;;0.63;0.60;;;5.20;99.90;;;;;;4952338;28;20029;-58
2024/01/31 12:49:12;;;;;;;2.33;0.88;;;5.10;99.90;;;;;;4976977;28;20170;-59
2024/01/31 12:51:38;;;;;;;4.90;0.93;;;5.20;99.90;;;;;;4948651;28;20210;-57